Date,TemperatureHighF,TemperatureAvgF,TemperatureLowF,DewpointHighF,DewpointAvgF,DewpointLowF,HumidityHigh,HumidityAvg,HumidityLow,PressureMaxIn,PressureMinIn,WindSpeedMaxMPH,WindSpeedAvgMPH,GustSpeedMaxMPH,PrecipitationSumIn
2013-4-1,35,25,16,10,6,3,58,46,34,30.25,30.08,0,0,0,0.00
2013-4-2,38,27,16,13,8,4,76,47,31,30.34,30.22,0,0,0,0.00
2013-4-3,48,34,16,24,13,1,61,43,29,30.37,30.02,0,0,0,0.00
2013-4-4,50,42,31,28,20,13,65,42,31,30.17,29.99,0,0,0,0.00
2013-4-5,44,33,24,28,18,10,78,56,30,30.22,29.90,0,0,0,0.00
2013-4-6,55,41,36,37,28,20,77,61,37,29.90,29.52,0,0,0,0.00
2013-4-7,52,41,35,34,27,22,76,60,37,29.93,29.75,0,0,0,0.00
2013-4-8,46,42,39,38,34,31,77,75,71,30.05,29.69,0,0,0,0.00
2013-4-9,47,38,32,31,24,17,75,59,39,30.17,29.99,0,0,0,0.00
2013-4-10,39,34,30,24,19,14,79,54,39,30.19,29.90,0,0,0,0.00
2013-4-11,35,33,29,28,24,14,78,70,44,29.93,29.69,0,0,0,0.00
2013-4-12,35,31,27,24,22,18,78,70,48,29.84,29.69,0,0,0,0.00
2013-4-13,37,32,28,23,18,14,79,58,42,29.96,29.81,0,0,0,0.00
2013-4-14,36,32,29,30,22,14,78,67,47,29.93,29.49,0,0,0,0.00
2013-4-15,41,35,32,29,22,18,77,58,43,29.96,29.52,0,0,0,0.00
2013-4-16,48,38,32,23,20,18,64,49,35,30.31,29.96,0,0,0,0.00
2013-4-17,40,37,34,23,20,18,55,51,46,30.31,30.05,0,0,0,0.00
2013-4-18,32,32,31,26,26,24,78,78,76,29.78,29.52,0,0,0,0.00
2013-4-19,38,32,28,24,18,8,78,59,39,29.99,29.52,0,0,0,0.00
2013-4-20,48,34,19,15,10,6,73,40,24,30.28,29.99,0,0,0,0.00
2013-4-21,50,40,32,40,29,9,77,65,33,30.28,29.99,0,0,0,0.00
2013-4-22,45,37,31,31,26,19,78,66,39,30.22,30.11,0,0,0,0.00
2013-4-23,42,33,26,25,18,11,78,55,32,30.17,30.05,0,0,0,0.00
2013-4-24,52,37,25,30,21,14,77,57,28,30.08,29.90,0,0,0,0.00
2013-4-25,53,42,30,28,22,18,77,50,28,30.19,29.99,0,0,0,0.00
2013-4-26,73,58,45,37,30,21,57,35,23,30.14,29.96,0,0,0,0.00
2013-4-27,76,61,37,37,30,21,57,33,18,30.14,29.90,0,0,0,0.00
2013-4-28,82,64,50,51,39,36,73,43,22,29.90,29.66,0,0,0,0.00
2013-4-29,76,63,48,50,37,30,75,42,22,29.84,29.57,0,0,0,0.00
2013-4-30,69,64,55,53,38,24,67,41,23,29.96,29.43,0,0,0,0.00